PWSweather.com
Personal Weather Stations
Station Observations
REUBENS
Camas Prairie, Reubens, ID

Camas PrairieReubens, ID

Lat: 46.35417, Lon: -116.53167

Elevation: 3480

Station Type: Davis VantagePro 2

http://www.theobrienranch.com/wx/wx.htm

High Low Average
Temperature 88.8°F31.6°C 52.6°F11.4°C 70.1°F21.2°C
Dew Point 49.5°F9.7°C 36.3°F2.4°C 42.5°F5.8°C
Winds 8.2 mph 13.2 kmh Calm Calm 2.0 mph SW3.2 kmh SW
Wind Gusts 9.0 mph14.5 kmh -- 4.0 mph6.4 kmh
Humidity 61% 22% 39%
Pressure 29.95 in1014.2 mb 29.75 in1007.5 mb -
Precipitation 0.00 in0.0 mm - -
Hour Temp Dew Point Humidity Winds Wind Gusts Pressure Precip Precip Rate Daily Precip Total
12:00 AM 56.9°F13.8°C 35.8°F2.1°C 45% 1.2 mph SW1.9 kmh SW 2.0 mph3.2 kmh 29.93 in1013.5 mb 0.00 in0.0 mm 0.00 in/hr0.0 mm/hr 0.00 in0.0 mm
12:30 AM 56.0°F13.3°C 36.0°F2.2°C 47% 2.1 mph SW3.4 kmh SW 3.0 mph4.8 kmh 29.93 in1013.5 mb 0.00 in0.0 mm 0.00 in/hr0.0 mm/hr 0.00 in0.0 mm
01:00 AM 55.7°F13.2°C 36.3°F2.4°C 48% 2.0 mph SW3.2 kmh SW 3.0 mph4.8 kmh 29.92 in1013.2 mb 0.00 in0.0 mm 0.00 in/hr0.0 mm/hr 0.00 in0.0 mm
01:30 AM 53.8°F12.1°C 36.6°F2.6°C 52% 2.9 mph SW4.7 kmh SW 4.0 mph6.4 kmh 29.93 in1013.5 mb 0.00 in0.0 mm 0.00 in/hr0.0 mm/hr 0.00 in0.0 mm
02:00 AM 54.3°F12.4°C 36.5°F2.5°C 51% 0.8 mph SW1.3 kmh SW 3.0 mph4.8 kmh 29.91 in1012.9 mb 0.00 in0.0 mm 0.00 in/hr0.0 mm/hr 0.00 in0.0 mm
02:30 AM 54.9°F12.7°C 37.1°F2.8°C 51% 3.4 mph SW5.5 kmh SW 4.0 mph6.4 kmh 29.91 in1012.9 mb 0.00 in0.0 mm 0.00 in/hr0.0 mm/hr 0.00 in0.0 mm
03:00 AM 56.0°F13.3°C 37.1°F2.8°C 49% 2.8 mph SSW4.5 kmh SSW 5.0 mph8.0 kmh 29.90 in1012.5 mb 0.00 in0.0 mm 0.00 in/hr0.0 mm/hr 0.00 in0.0 mm
03:30 AM 56.1°F13.4°C 37.2°F2.9°C 49% 3.2 mph SSW5.1 kmh SSW 4.0 mph6.4 kmh 29.90 in1012.5 mb 0.00 in0.0 mm 0.00 in/hr0.0 mm/hr 0.00 in0.0 mm
04:00 AM 58.9°F14.9°C 39.2°F4.0°C 48% 8.2 mph S13.2 kmh S 9.0 mph14.5 kmh 29.87 in1011.5 mb 0.00 in0.0 mm 0.00 in/hr0.0 mm/hr 0.00 in0.0 mm
04:30 AM 58.7°F14.8°C 40.6°F4.8°C 51% 5.7 mph SSE9.2 kmh SSE 7.0 mph11.3 kmh 29.87 in1011.5 mb 0.00 in0.0 mm 0.00 in/hr0.0 mm/hr 0.00 in0.0 mm
05:00 AM 59.0°F15.0°C 41.9°F5.5°C 53% 2.4 mph SSE3.9 kmh SSE 4.0 mph6.4 kmh 29.88 in1011.9 mb 0.00 in0.0 mm 0.00 in/hr0.0 mm/hr 0.00 in0.0 mm
05:30 AM 59.9°F15.5°C 42.7°F5.9°C 53% 1.9 mph SSE3.1 kmh SSE 2.0 mph3.2 kmh 29.88 in1011.9 mb 0.00 in0.0 mm 0.00 in/hr0.0 mm/hr 0.00 in0.0 mm
06:00 AM 59.2°F15.1°C 42.0°F5.6°C 53% 5.6 mph ESE9.0 kmh ESE 6.0 mph9.7 kmh 29.89 in1012.2 mb 0.00 in0.0 mm 0.00 in/hr0.0 mm/hr 0.00 in0.0 mm
06:30 AM 55.0°F12.8°C 40.9°F4.9°C 59% 2.0 mph SE3.2 kmh SE 3.0 mph4.8 kmh 29.91 in1012.9 mb 0.00 in0.0 mm 0.00 in/hr0.0 mm/hr 0.00 in0.0 mm
07:00 AM 52.6°F11.4°C 39.5°F4.2°C 61% 1.6 mph SE2.6 kmh SE 2.0 mph3.2 kmh 29.94 in1013.9 mb 0.00 in0.0 mm 0.00 in/hr0.0 mm/hr 0.00 in0.0 mm
07:30 AM 52.6°F11.4°C 39.1°F3.9°C 60% 1.3 mph SSE2.1 kmh SSE 3.0 mph4.8 kmh 29.95 in1014.2 mb 0.00 in0.0 mm 0.00 in/hr0.0 mm/hr 0.00 in0.0 mm
08:00 AM 60.3°F15.7°C 42.6°F5.9°C 52% 0.1 mph SSE0.2 kmh SSE 1.0 mph1.6 kmh 29.94 in1013.9 mb 0.00 in0.0 mm 0.00 in/hr0.0 mm/hr 0.00 in0.0 mm
08:30 AM 64.4°F18.0°C 44.2°F6.8°C 48% 1.9 mph SSE3.1 kmh SSE 3.0 mph4.8 kmh 29.93 in1013.5 mb 0.00 in0.0 mm 0.00 in/hr0.0 mm/hr 0.00 in0.0 mm
09:00 AM 67.5°F19.7°C 44.8°F7.1°C 44% 3.0 mph SE4.8 kmh SE 5.0 mph8.0 kmh 29.93 in1013.5 mb 0.00 in0.0 mm 0.00 in/hr0.0 mm/hr 0.00 in0.0 mm
09:30 AM 71.8°F22.1°C 44.8°F7.1°C 38% 0.5 mph SE0.8 kmh SE 3.0 mph4.8 kmh 29.90 in1012.5 mb 0.00 in0.0 mm 0.00 in/hr0.0 mm/hr 0.00 in0.0 mm
10:00 AM 74.5°F23.6°C 45.0°F7.2°C 35% 2.0 mph ESE3.2 kmh ESE 3.0 mph4.8 kmh 29.90 in1012.5 mb 0.00 in0.0 mm 0.00 in/hr0.0 mm/hr 0.00 in0.0 mm
10:30 AM 74.9°F23.8°C 46.1°F7.8°C 36% 5.2 mph ENE8.4 kmh ENE 7.0 mph11.3 kmh 29.90 in1012.5 mb 0.00 in0.0 mm 0.00 in/hr0.0 mm/hr 0.00 in0.0 mm
11:00 AM 78.5°F25.8°C 46.2°F7.9°C 32% 3.4 mph ENE5.5 kmh ENE 7.0 mph11.3 kmh 29.88 in1011.9 mb 0.00 in0.0 mm 0.00 in/hr0.0 mm/hr 0.00 in0.0 mm
11:30 AM 81.5°F27.5°C 46.2°F7.9°C 29% 2.6 mph N4.2 kmh N 4.0 mph6.4 kmh 29.86 in1011.2 mb 0.00 in0.0 mm 0.00 in/hr0.0 mm/hr 0.00 in0.0 mm
12:00 PM 83.1°F28.4°C 46.6°F8.1°C 28% 5.1 mph NE8.2 kmh NE 7.0 mph11.3 kmh 29.86 in1011.2 mb 0.00 in0.0 mm 0.00 in/hr0.0 mm/hr 0.00 in0.0 mm
12:30 PM 80.8°F27.1°C 46.4°F8.0°C 30% 5.3 mph ENE8.5 kmh ENE 6.0 mph9.7 kmh 29.86 in1011.2 mb 0.00 in0.0 mm 0.00 in/hr0.0 mm/hr 0.00 in0.0 mm
01:00 PM 86.5°F30.3°C 48.5°F9.2°C 27% Calm Calm -- 29.83 in1010.2 mb 0.00 in0.0 mm 0.00 in/hr0.0 mm/hr 0.00 in0.0 mm
01:30 PM 87.6°F30.9°C 49.5°F9.7°C 27% 4.1 mph N6.6 kmh N 6.0 mph9.7 kmh 29.82 in1009.8 mb 0.00 in0.0 mm 0.00 in/hr0.0 mm/hr 0.00 in0.0 mm
02:00 PM 88.8°F31.6°C 49.5°F9.7°C 26% 3.1 mph NW5.0 kmh NW 6.0 mph9.7 kmh 29.80 in1009.1 mb 0.00 in0.0 mm 0.00 in/hr0.0 mm/hr 0.00 in0.0 mm
02:30 PM 88.3°F31.3°C 48.0°F8.9°C 25% 2.8 mph NW4.5 kmh NW 5.0 mph8.0 kmh 29.80 in1009.1 mb 0.00 in0.0 mm 0.00 in/hr0.0 mm/hr 0.00 in0.0 mm
03:00 PM 88.4°F31.3°C 47.0°F8.3°C 24% 4.1 mph NW6.6 kmh NW 7.0 mph11.3 kmh 29.79 in1008.8 mb 0.00 in0.0 mm 0.00 in/hr0.0 mm/hr 0.00 in0.0 mm
03:30 PM 88.1°F31.2°C 46.8°F8.2°C 24% 0.6 mph NW1.0 kmh NW 2.0 mph3.2 kmh 29.78 in1008.5 mb 0.00 in0.0 mm 0.00 in/hr0.0 mm/hr 0.00 in0.0 mm
04:00 PM 88.6°F31.4°C 44.9°F7.2°C 22% 1.6 mph NNW2.6 kmh NNW 9.0 mph14.5 kmh 29.77 in1008.1 mb 0.00 in0.0 mm 0.00 in/hr0.0 mm/hr 0.00 in0.0 mm
04:30 PM 86.8°F30.4°C 45.7°F7.6°C 24% 3.4 mph NW5.5 kmh NW 5.0 mph8.0 kmh 29.77 in1008.1 mb 0.00 in0.0 mm 0.00 in/hr0.0 mm/hr 0.00 in0.0 mm
05:00 PM 85.4°F29.7°C 44.5°F6.9°C 24% 1.0 mph NW1.6 kmh NW 1.0 mph1.6 kmh 29.77 in1008.1 mb 0.00 in0.0 mm 0.00 in/hr0.0 mm/hr 0.00 in0.0 mm
05:30 PM 82.9°F28.3°C 43.4°F6.3°C 25% 0.1 mph WNW0.2 kmh WNW 1.0 mph1.6 kmh 29.79 in1008.8 mb 0.00 in0.0 mm 0.00 in/hr0.0 mm/hr 0.00 in0.0 mm
06:00 PM 80.9°F27.2°C 43.8°F6.6°C 27% Calm Calm -- 29.81 in1009.5 mb 0.00 in0.0 mm 0.00 in/hr0.0 mm/hr 0.00 in0.0 mm
06:30 PM 77.5°F25.3°C 42.7°F5.9°C 29% Calm Calm -- 29.82 in1009.8 mb 0.00 in0.0 mm 0.00 in/hr0.0 mm/hr 0.00 in0.0 mm
07:00 PM 75.1°F23.9°C 41.5°F5.3°C 30% 0.1 mph WNW0.2 kmh WNW -- 29.82 in1009.8 mb 0.00 in0.0 mm 0.00 in/hr0.0 mm/hr 0.00 in0.0 mm
07:30 PM 72.7°F22.6°C 41.1°F5.1°C 32% 1.2 mph WNW1.9 kmh WNW 1.0 mph1.6 kmh 29.82 in1009.8 mb 0.00 in0.0 mm 0.00 in/hr0.0 mm/hr 0.00 in0.0 mm
08:00 PM 70.6°F21.4°C 41.6°F5.3°C 35% 0.2 mph WNW0.3 kmh WNW 1.0 mph1.6 kmh 29.80 in1009.1 mb 0.00 in0.0 mm 0.00 in/hr0.0 mm/hr 0.00 in0.0 mm
08:30 PM 70.8°F21.6°C 41.0°F5.0°C 34% Calm Calm 1.0 mph1.6 kmh 29.79 in1008.8 mb 0.00 in0.0 mm 0.00 in/hr0.0 mm/hr 0.00 in0.0 mm
09:00 PM 69.2°F20.7°C 40.4°F4.7°C 35% 0.1 mph WNW0.2 kmh WNW 1.0 mph1.6 kmh 29.78 in1008.5 mb 0.00 in0.0 mm 0.00 in/hr0.0 mm/hr 0.00 in0.0 mm
09:30 PM 67.6°F19.8°C 40.4°F4.7°C 37% 4.7 mph WNW7.6 kmh WNW 5.0 mph8.0 kmh 29.78 in1008.5 mb 0.00 in0.0 mm 0.00 in/hr0.0 mm/hr 0.00 in0.0 mm
10:00 PM 67.9°F19.9°C 40.7°F4.8°C 37% 1.9 mph WNW3.1 kmh WNW 3.0 mph4.8 kmh 29.77 in1008.1 mb 0.00 in0.0 mm 0.00 in/hr0.0 mm/hr 0.00 in0.0 mm
10:30 PM 65.6°F18.7°C 40.6°F4.8°C 40% 3.5 mph WNW5.6 kmh WNW 4.0 mph6.4 kmh 29.78 in1008.5 mb 0.00 in0.0 mm 0.00 in/hr0.0 mm/hr 0.00 in0.0 mm
11:00 PM 62.1°F16.7°C 38.1°F3.4°C 41% 2.5 mph WNW4.0 kmh WNW 3.0 mph4.8 kmh 29.77 in1008.1 mb 0.00 in0.0 mm 0.00 in/hr0.0 mm/hr 0.00 in0.0 mm
11:30 PM 62.1°F16.7°C 40.0°F4.4°C 44% 0.6 mph WNW1.0 kmh WNW 4.0 mph6.4 kmh 29.77 in1008.1 mb 0.00 in0.0 mm 0.00 in/hr0.0 mm/hr 0.00 in0.0 mm